Time;durP1;ratioP1;P1;durP2;ratioP2;P2;SDS_P1;SDS_P2;PMS_P1;PMS_P2;Temp;Humidity;BMP_temperature;BMP_pressure;BME280_temperature;BME280_humidity;BME280_pressure;Samples;Min_cycle;Max_cycle;Signal;HPM_P1;HPM_P2
2023/11/11 00:00:21;;;;;;;2.20;0.98;;;13.70;88.90;;;;;;5037061;28;20383;-83
2023/11/11 00:02:46;;;;;;;1.42;0.70;;;13.70;88.90;;;;;;5019230;28;20060;-82
2023/11/11 00:05:12;;;;;;;2.17;0.90;;;13.80;88.80;;;;;;5019276;28;20029;-81
2023/11/11 00:07:38;;;;;;;2.47;1.02;;;13.80;88.60;;;;;;5037686;28;20491;-80
2023/11/11 00:10:04;;;;;;;1.88;0.77;;;13.80;88.60;;;;;;5018812;28;20034;-81
2023/11/11 00:12:30;;;;;;;2.22;0.70;;;13.80;88.50;;;;;;5036968;28;20025;-80
2023/11/11 00:14:56;;;;;;;1.23;0.70;;;13.80;88.50;;;;;;5037140;28;20030;-81
2023/11/11 00:17:21;;;;;;;2.75;0.82;;;13.80;88.50;;;;;;5018953;28;20137;-81
2023/11/11 00:19:47;;;;;;;2.83;1.10;;;13.70;88.50;;;;;;5018462;28;20033;-83
2023/11/11 00:22:13;;;;;;;1.45;0.70;;;13.80;88.60;;;;;;5018847;28;20049;-82
2023/11/11 00:24:39;;;;;;;1.58;0.80;;;13.80;88.70;;;;;;5016556;28;20033;-83
2023/11/11 00:27:05;;;;;;;1.73;0.82;;;13.80;88.80;;;;;;5016009;28;20021;-80
2023/11/11 00:29:30;;;;;;;1.05;0.63;;;13.80;88.90;;;;;;5016649;28;20033;-81
2023/11/11 00:31:56;;;;;;;2.40;0.80;;;13.70;88.90;;;;;;4998699;28;20056;-82
2023/11/11 00:34:22;;;;;;;1.42;0.80;;;13.70;88.90;;;;;;4998607;28;20025;-82
2023/11/11 00:36:51;;;;;;;1.50;0.77;;;13.70;89.00;;;;;;4998542;28;20022;-82
2023/11/11 00:39:18;;;;;;;1.33;0.70;;;13.70;89.10;;;;;;4998641;28;20088;-81
2023/11/11 00:41:43;;;;;;;1.88;0.70;;;13.70;89.10;;;;;;5017013;28;20018;-81
2023/11/11 00:44:09;;;;;;;1.60;0.80;;;13.70;89.10;;;;;;4999013;28;20037;-82
2023/11/11 00:46:39;;;;;;;1.98;0.77;;;13.70;89.10;;;;;;5016552;28;20029;-83
2023/11/11 00:49:07;;;;;;;1.92;0.82;;;13.70;89.10;;;;;;4998480;28;20133;-82
2023/11/11 00:51:39;;;;;;;1.40;0.85;;;13.70;89.20;;;;;;5015220;28;20373;-82
2023/11/11 00:54:05;;;;;;;;;;;13.70;89.20;;;;;;4998887;28;20026;-80
2023/11/11 00:56:31;;;;;;;2.28;0.73;;;13.70;89.20;;;;;;5015541;28;19913;-81
2023/11/11 00:58:57;;;;;;;1.85;0.85;;;13.70;89.20;;;;;;4997924;28;20029;-81
2023/11/11 01:01:23;;;;;;;1.80;0.90;;;13.70;89.30;;;;;;4998393;28;20404;-81
2023/11/11 01:03:49;;;;;;;1.42;0.80;;;13.70;89.30;;;;;;4997702;28;20032;-80
2023/11/11 01:06:14;;;;;;;2.40;0.85;;;13.70;89.20;;;;;;4998324;28;20406;-80
2023/11/11 01:08:40;;;;;;;1.10;0.60;;;13.70;89.30;;;;;;4998335;28;20018;-80
2023/11/11 01:11:07;;;;;;;1.08;0.73;;;13.70;89.30;;;;;;4997962;28;20103;-81
2023/11/11 01:13:33;;;;;;;2.08;0.80;;;13.70;89.30;;;;;;4998379;28;20018;-80
2023/11/11 01:16:00;;;;;;;2.70;1.00;;;13.80;89.40;;;;;;4998320;28;20029;-80
2023/11/11 01:18:30;;;;;;;2.47;0.82;;;13.60;89.30;;;;;;5014536;28;20026;-81
2023/11/11 01:20:56;;;;;;;1.20;0.70;;;13.60;89.30;;;;;;5016043;28;20113;-81
2023/11/11 01:23:22;;;;;;;1.17;0.70;;;13.70;89.30;;;;;;4998479;28;20030;-80
2023/11/11 01:25:48;;;;;;;1.02;0.80;;;13.70;89.30;;;;;;5014875;28;20033;-81
2023/11/11 01:28:13;;;;;;;1.10;0.75;;;13.70;89.30;;;;;;4998090;28;20030;-80
2023/11/11 01:30:39;;;;;;;2.08;0.88;;;13.70;89.10;;;;;;4998229;28;20036;-81
2023/11/11 01:33:06;;;;;;;0.95;0.70;;;13.80;89.10;;;;;;4998319;28;20113;-81
2023/11/11 01:35:31;;;;;;;1.40;0.80;;;13.80;89.00;;;;;;5015937;28;20036;-81
2023/11/11 01:37:57;;;;;;;1.13;0.70;;;13.80;88.80;;;;;;4998541;28;20086;-81
2023/11/11 01:40:23;;;;;;;1.30;0.80;;;13.80;88.80;;;;;;5014061;28;20101;-81
2023/11/11 01:42:48;;;;;;;1.40;0.95;;;13.80;88.80;;;;;;5014752;28;20018;-80
2023/11/11 01:45:14;;;;;;;0.80;0.60;;;13.80;88.70;;;;;;5014285;28;20060;-81
2023/11/11 01:47:41;;;;;;;1.30;0.80;;;13.80;88.80;;;;;;5014433;28;20115;-81
2023/11/11 01:50:07;;;;;;;1.70;0.70;;;13.80;88.80;;;;;;5015080;28;20038;-80
2023/11/11 01:52:33;;;;;;;2.05;0.75;;;13.80;88.90;;;;;;4998021;28;20029;-80
2023/11/11 01:54:59;;;;;;;2.30;1.02;;;13.70;89.40;;;;;;5013913;28;20030;-81
2023/11/11 01:57:26;;;;;;;1.90;0.70;;;13.70;89.00;;;;;;4997823;28;20111;-81
2023/11/11 01:59:52;;;;;;;1.33;0.70;;;13.70;89.00;;;;;;5015157;28;20028;-81
2023/11/11 02:02:18;;;;;;;2.45;1.10;;;13.70;89.10;;;;;;5032253;28;20499;-81
2023/11/11 02:04:44;;;;;;;2.38;0.77;;;13.70;89.10;;;;;;5033976;28;20041;-81
2023/11/11 02:07:09;;;;;;;1.80;0.77;;;13.70;89.20;;;;;;5034154;28;20031;-81
2023/11/11 02:09:35;;;;;;;2.42;0.90;;;13.70;89.20;;;;;;5035124;28;20507;-80
2023/11/11 02:12:00;;;;;;;1.10;0.60;;;13.70;89.30;;;;;;5034103;28;20443;-80
2023/11/11 02:14:26;;;;;;;1.80;0.77;;;13.70;89.30;;;;;;5036258;28;20029;-80
2023/11/11 02:16:52;;;;;;;0.90;0.60;;;13.60;89.20;;;;;;5039367;28;20026;-79
2023/11/11 02:19:17;;;;;;;1.70;0.70;;;13.70;89.30;;;;;;5037668;28;20083;-80
2023/11/11 02:21:43;;;;;;;1.10;0.75;;;13.60;89.30;;;;;;5038017;28;20503;-81
2023/11/11 02:24:10;;;;;;;1.80;0.80;;;13.70;89.40;;;;;;5039081;28;20085;-80
2023/11/11 02:26:36;;;;;;;1.13;0.70;;;13.70;89.40;;;;;;5037356;28;20615;-80
2023/11/11 02:29:01;;;;;;;1.08;0.70;;;13.70;89.40;;;;;;5036996;28;20094;-81
2023/11/11 02:31:27;;;;;;;1.45;0.70;;;13.70;89.40;;;;;;5037801;28;20053;-81
2023/11/11 02:33:52;;;;;;;2.15;0.80;;;13.70;89.40;;;;;;5037142;28;20038;-80
2023/11/11 02:36:19;;;;;;;1.30;0.60;;;13.70;89.50;;;;;;5037493;28;20442;-80
2023/11/11 02:38:45;;;;;;;0.98;0.60;;;13.60;89.40;;;;;;5037296;28;20017;-81
2023/11/11 02:41:10;;;;;;;1.35;0.80;;;13.70;89.40;;;;;;5038344;28;20036;-81
2023/11/11 02:43:36;;;;;;;0.82;0.45;;;13.60;89.40;;;;;;5037073;28;20022;-81
2023/11/11 02:46:02;;;;;;;1.80;0.80;;;13.70;89.50;;;;;;5036702;28;20128;-80
2023/11/11 02:48:28;;;;;;;0.88;0.63;;;13.70;89.50;;;;;;5037236;28;20053;-80
2023/11/11 02:50:53;;;;;;;1.48;0.80;;;13.70;89.50;;;;;;5038597;28;20025;-81
2023/11/11 02:53:19;;;;;;;1.88;0.70;;;13.60;89.40;;;;;;5037183;28;20045;-81
2023/11/11 02:55:45;;;;;;;1.40;0.63;;;13.60;89.40;;;;;;5037044;28;20373;-81
2023/11/11 02:58:11;;;;;;;0.80;0.60;;;13.70;89.40;;;;;;5038297;28;20028;-80
2023/11/11 03:00:39;;;;;;;2.05;0.80;;;13.70;89.40;;;;;;5036262;28;20025;-80
2023/11/11 03:03:07;;;;;;;1.73;0.70;;;13.70;89.20;;;;;;5037311;28;20043;-81
2023/11/11 03:05:33;;;;;;;1.02;0.70;;;13.70;89.10;;;;;;5035175;28;20017;-81
2023/11/11 03:07:59;;;;;;;0.80;0.50;;;13.70;89.00;;;;;;5019298;28;20029;-81
2023/11/11 03:10:25;;;;;;;1.58;0.80;;;13.80;89.00;;;;;;5019716;28;20036;-81
2023/11/11 03:12:50;;;;;;;1.40;0.70;;;13.80;89.00;;;;;;5020169;28;20021;-80
2023/11/11 03:15:16;;;;;;;1.05;0.70;;;13.70;88.80;;;;;;5020209;28;20025;-81
2023/11/11 03:17:43;;;;;;;1.63;0.73;;;13.70;88.90;;;;;;5020507;28;20028;-81
2023/11/11 03:20:09;;;;;;;0.80;0.60;;;13.70;88.90;;;;;;5019756;28;20040;-81
2023/11/11 03:22:35;;;;;;;1.48;0.70;;;13.80;89.00;;;;;;5020092;28;20400;-81
2023/11/11 03:25:00;;;;;;;0.90;0.65;;;13.80;89.00;;;;;;5019332;28;20441;-81
2023/11/11 03:27:26;;;;;;;1.30;0.65;;;13.70;89.10;;;;;;5020113;28;20021;-81
2023/11/11 03:29:51;;;;;;;1.08;0.77;;;13.70;89.20;;;;;;5019521;28;20113;-82
2023/11/11 03:32:17;;;;;;;2.45;0.80;;;13.70;89.20;;;;;;5020309;28;20112;-81
2023/11/11 03:34:42;;;;;;;1.13;0.70;;;13.70;89.40;;;;;;5020151;28;20132;-82
2023/11/11 03:37:08;;;;;;;1.48;0.70;;;13.70;89.30;;;;;;5020088;28;20101;-81
2023/11/11 03:39:33;;;;;;;2.10;0.75;;;13.70;89.30;;;;;;5018994;28;20029;-81
2023/11/11 03:41:59;;;;;;;0.82;0.60;;;13.70;89.40;;;;;;5037686;28;20112;-81
2023/11/11 03:44:25;;;;;;;0.80;0.57;;;13.60;89.40;;;;;;5019657;28;20108;-81
2023/11/11 03:46:50;;;;;;;1.35;0.52;;;13.70;89.40;;;;;;5037973;28;20077;-81
2023/11/11 03:49:16;;;;;;;1.05;0.60;;;13.60;89.40;;;;;;5019136;28;20026;-81
2023/11/11 03:51:41;;;;;;;1.92;0.75;;;13.60;89.40;;;;;;5037945;28;20086;-81
2023/11/11 03:54:07;;;;;;;1.67;0.77;;;13.70;89.50;;;;;;5037668;28;20029;-81
2023/11/11 03:56:32;;;;;;;1.25;0.75;;;13.60;89.50;;;;;;5019060;28;20479;-81
2023/11/11 03:58:58;;;;;;;0.80;0.57;;;13.60;89.50;;;;;;5019067;28;20078;-80
2023/11/11 04:01:24;;;;;;;1.17;0.73;;;13.60;89.50;;;;;;5019476;28;20017;-80
2023/11/11 04:03:50;;;;;;;1.05;0.50;;;13.60;89.50;;;;;;5019617;28;20105;-81
2023/11/11 04:06:16;;;;;;;1.08;0.60;;;13.60;89.50;;;;;;5019413;28;20121;-80
2023/11/11 04:08:41;;;;;;;1.05;0.80;;;13.60;89.50;;;;;;5018954;28;20029;-81
2023/11/11 04:11:07;;;;;;;1.58;0.80;;;13.60;89.50;;;;;;5019635;28;20048;-80
2023/11/11 04:13:40;;;;;;;2.42;0.80;;;13.50;89.50;;;;;;5037160;28;20025;-81
2023/11/11 04:16:07;;;;;;;1.48;0.80;;;13.60;89.60;;;;;;5019005;28;20048;-81
2023/11/11 04:18:34;;;;;;;1.30;0.70;;;13.60;89.60;;;;;;5018654;28;20089;-80
2023/11/11 04:21:03;;;;;;;1.00;0.70;;;13.60;89.60;;;;;;5057501;23;20048;-78
2023/11/11 04:23:29;;;;;;;0.93;0.68;;;13.60;89.60;;;;;;5056145;28;20491;-77
2023/11/11 04:25:56;;;;;;;1.08;0.60;;;13.60;89.60;;;;;;5057456;28;20029;-79
2023/11/11 04:28:22;;;;;;;1.15;0.80;;;13.70;89.50;;;;;;5039736;28;20035;-77
2023/11/11 04:30:48;;;;;;;0.90;0.70;;;13.70;89.50;;;;;;5056777;28;20483;-77
2023/11/11 04:33:13;;;;;;;0.68;0.60;;;13.70;89.30;;;;;;5038992;28;20044;-76
2023/11/11 04:35:39;;;;;;;1.23;0.63;;;13.70;89.30;;;;;;5039533;28;20041;-77
2023/11/11 04:38:07;;;;;;;0.98;0.70;;;13.70;89.20;;;;;;5037410;28;20025;-77
2023/11/11 04:40:33;;;;;;;1.33;0.70;;;13.70;89.00;;;;;;5056419;28;20021;-77
2023/11/11 04:42:59;;;;;;;1.00;0.65;;;13.80;89.00;;;;;;5039193;28;20116;-77
2023/11/11 04:45:24;;;;;;;1.30;0.80;;;13.70;89.00;;;;;;5039340;28;20035;-76
2023/11/11 04:47:51;;;;;;;1.50;0.70;;;13.70;88.90;;;;;;5039985;28;20033;-76
2023/11/11 04:50:17;;;;;;;0.98;0.70;;;13.70;89.00;;;;;;5039708;28;20717;-77
2023/11/11 04:52:44;;;;;;;1.50;0.82;;;13.70;89.10;;;;;;5040825;28;20062;-77
2023/11/11 04:55:09;;;;;;;2.00;0.77;;;13.70;89.10;;;;;;5038820;28;20108;-77
2023/11/11 04:57:35;;;;;;;2.00;1.00;;;13.70;89.20;;;;;;5038981;28;20055;-77
2023/11/11 05:00:06;;;;;;;1.17;0.88;;;13.70;89.30;;;;;;5038766;28;20029;-77
2023/11/11 05:02:32;;;;;;;1.42;0.80;;;13.70;89.30;;;;;;5057629;28;20013;-76
2023/11/11 05:04:58;;;;;;;1.83;0.85;;;13.60;89.40;;;;;;5040786;28;20061;-79
2023/11/11 05:07:23;;;;;;;1.58;0.90;;;13.70;89.50;;;;;;5039375;28;20029;-76
2023/11/11 05:09:49;;;;;;;1.80;0.98;;;13.60;89.50;;;;;;5040421;28;20033;-76
2023/11/11 05:12:15;;;;;;;1.67;0.95;;;13.70;89.60;;;;;;5040276;28;20025;-76
2023/11/11 05:14:41;;;;;;;1.25;0.85;;;13.70;89.50;;;;;;5035737;28;20467;-77
2023/11/11 05:17:09;;;;;;;1.90;0.80;;;13.70;89.60;;;;;;5048938;28;20021;-75
2023/11/11 05:19:34;;;;;;;1.08;0.82;;;13.60;89.50;;;;;;5046332;28;20025;-76
2023/11/11 05:22:02;;;;;;;1.42;0.73;;;13.60;89.60;;;;;;5029547;28;20035;-77
2023/11/11 05:24:28;;;;;;;2.20;0.90;;;13.60;89.60;;;;;;5029169;28;20071;-76
2023/11/11 05:26:54;;;;;;;1.95;1.30;;;13.60;89.60;;;;;;5046239;28;20483;-76
2023/11/11 05:29:20;;;;;;;1.67;1.10;;;13.60;89.60;;;;;;5028409;28;20032;-76
2023/11/11 05:31:46;;;;;;;2.25;0.93;;;13.60;89.60;;;;;;5028245;28;20048;-76
2023/11/11 05:34:12;;;;;;;1.50;0.90;;;13.60;89.60;;;;;;5046681;28;20036;-78
2023/11/11 05:36:38;;;;;;;2.08;0.93;;;13.60;89.70;;;;;;5046336;28;20394;-76
2023/11/11 05:39:04;;;;;;;1.98;1.02;;;13.60;89.70;;;;;;5028387;28;20021;-75
2023/11/11 05:41:30;;;;;;;3.13;1.20;;;13.60;89.70;;;;;;5045971;28;20449;-75
2023/11/11 05:43:56;;;;;;;2.65;1.17;;;13.60;89.70;;;;;;5030221;28;20051;-77
2023/11/11 05:46:24;;;;;;;1.67;1.00;;;13.60;89.60;;;;;;5047016;28;20032;-77
2023/11/11 05:48:49;;;;;;;1.60;0.98;;;13.60;89.70;;;;;;5045131;28;20756;-77
2023/11/11 05:51:15;;;;;;;2.28;1.10;;;13.60;89.70;;;;;;5045547;28;20052;-76
2023/11/11 05:53:41;;;;;;;2.00;0.95;;;13.60;89.70;;;;;;5027882;28;20478;-76
2023/11/11 05:56:08;;;;;;;2.78;1.00;;;13.60;89.70;;;;;;5028644;28;20025;-76
2023/11/11 05:58:34;;;;;;;1.42;0.80;;;13.60;89.60;;;;;;5045869;28;20107;-76
2023/11/11 06:01:00;;;;;;;1.60;1.05;;;13.60;89.60;;;;;;5028790;28;20421;-77
2023/11/11 06:03:25;;;;;;;1.40;0.90;;;13.60;89.50;;;;;;5045849;28;20031;-76
2023/11/11 06:05:51;;;;;;;1.52;0.93;;;13.70;89.40;;;;;;5027728;28;20053;-76
2023/11/11 06:08:19;;;;;;;1.42;0.80;;;13.70;89.30;;;;;;5045709;28;20035;-75
2023/11/11 06:10:44;;;;;;;1.30;0.90;;;13.70;89.20;;;;;;5045749;28;20056;-76
2023/11/11 06:13:10;;;;;;;1.88;1.10;;;13.70;89.10;;;;;;5030424;28;20041;-76
2023/11/11 06:15:36;;;;;;;1.90;1.20;;;13.80;89.10;;;;;;5038688;28;20039;-78
2023/11/11 06:18:02;;;;;;;1.77;1.00;;;13.70;89.10;;;;;;5028037;28;20085;-76
2023/11/11 06:20:28;;;;;;;2.10;1.10;;;13.70;89.10;;;;;;5045062;28;20553;-76
2023/11/11 06:22:54;;;;;;;2.28;1.00;;;13.70;89.10;;;;;;5046096;28;20728;-77
2023/11/11 06:25:21;;;;;;;2.83;1.33;;;13.70;89.20;;;;;;5029725;28;20029;-77
2023/11/11 06:27:48;;;;;;;1.67;1.00;;;13.70;89.30;;;;;;5045695;28;20490;-77
2023/11/11 06:30:16;;;;;;;2.17;1.13;;;13.70;89.30;;;;;;5027868;28;20032;-75
2023/11/11 06:32:45;;;;;;;2.40;1.00;;;13.60;89.30;;;;;;5027775;28;20028;-76
2023/11/11 06:35:12;;;;;;;1.25;1.00;;;13.60;89.40;;;;;;5046068;28;20368;-75
2023/11/11 06:37:38;;;;;;;1.83;1.10;;;13.60;89.50;;;;;;5046059;28;20021;-76
2023/11/11 06:40:04;;;;;;;2.53;1.10;;;13.60;89.50;;;;;;5045412;28;20078;-75
2023/11/11 06:42:30;;;;;;;1.85;1.00;;;13.60;89.50;;;;;;5027881;28;20512;-77
2023/11/11 06:44:56;;;;;;;1.50;1.00;;;13.60;89.60;;;;;;5045417;28;20029;-78
2023/11/11 06:47:22;;;;;;;2.55;1.30;;;13.60;89.60;;;;;;5046471;28;20032;-78
2023/11/11 06:49:47;;;;;;;2.28;1.20;;;13.60;89.60;;;;;;5045548;28;20125;-76
2023/11/11 06:52:13;;;;;;;2.40;1.25;;;13.60;89.70;;;;;;5028806;28;20029;-76
2023/11/11 06:54:38;;;;;;;2.45;1.23;;;13.60;89.60;;;;;;5027805;28;20043;-75
2023/11/11 06:57:05;;;;;;;1.52;1.10;;;13.60;89.70;;;;;;5046406;28;20036;-78
2023/11/11 06:59:31;;;;;;;2.42;1.23;;;13.60;89.70;;;;;;5045696;28;20021;-76
2023/11/11 07:01:57;;;;;;;3.42;1.17;;;13.60;89.60;;;;;;5048490;28;20063;-76
2023/11/11 07:04:22;;;;;;;3.05;1.27;;;13.60;89.70;;;;;;5047771;28;20146;-76
2023/11/11 07:06:48;;;;;;;1.65;1.10;;;13.60;89.70;;;;;;5048894;28;20040;-77
2023/11/11 07:09:13;;;;;;;2.17;1.15;;;13.60;89.70;;;;;;5048938;28;20491;-77
2023/11/11 07:11:39;;;;;;;3.80;1.45;;;13.50;89.70;;;;;;5047843;28;20025;-77
2023/11/11 07:14:06;;;;;;;2.33;1.27;;;13.60;89.70;;;;;;5047451;28;20032;-77
2023/11/11 07:16:32;;;;;;;2.90;1.40;;;13.60;89.70;;;;;;5047534;28;20020;-77
2023/11/11 07:18:58;;;;;;;1.90;1.20;;;13.60;89.70;;;;;;5047193;28;20029;-76
2023/11/11 07:21:24;;;;;;;2.53;1.10;;;13.60;89.70;;;;;;5047709;28;20033;-76
2023/11/11 07:23:53;;;;;;;2.13;1.10;;;13.60;89.70;;;;;;5048849;28;20036;-77
2023/11/11 07:26:19;;;;;;;1.70;1.10;;;13.60;89.70;;;;;;5049183;28;20107;-78
2023/11/11 07:28:45;;;;;;;1.58;1.00;;;13.60;89.70;;;;;;5048552;28;20032;-76
2023/11/11 07:31:15;;;;;;;2.15;1.00;;;13.60;89.60;;;;;;5047585;28;20029;-77
2023/11/11 07:33:42;;;;;;;1.55;1.05;;;13.60;89.60;;;;;;5047891;28;20118;-77
2023/11/11 07:36:09;;;;;;;1.70;1.02;;;13.70;89.60;;;;;;5048592;28;20029;-77
2023/11/11 07:38:39;;;;;;;2.20;1.10;;;13.70;89.40;;;;;;5047091;28;20029;-77
2023/11/11 07:41:09;;;;;;;2.03;1.00;;;13.70;89.30;;;;;;5047281;28;20036;-76
2023/11/11 07:43:35;;;;;;;1.92;1.17;;;13.70;89.20;;;;;;5048967;28;20100;-77
2023/11/11 07:46:09;;;;;;;3.00;0.90;;;13.70;89.20;;;;;;5049380;28;20048;-75
2023/11/11 07:48:35;;;;;;;1.38;1.00;;;13.70;89.10;;;;;;5049243;28;20024;-76
2023/11/11 07:51:05;;;;;;;2.80;1.30;;;13.70;89.00;;;;;;5048765;28;20030;-77
2023/11/11 07:53:31;;;;;;;2.95;1.40;;;13.70;89.10;;;;;;5044156;28;20028;-76
2023/11/11 07:55:59;;;;;;;2.88;1.20;;;13.70;89.10;;;;;;5027663;28;20549;-76
2023/11/11 07:58:24;;;;;;;1.95;1.02;;;13.70;89.20;;;;;;5032957;28;20132;-77
2023/11/11 08:00:51;;;;;;;1.90;1.13;;;13.70;89.20;;;;;;5030767;28;20092;-76
2023/11/11 08:03:18;;;;;;;2.33;1.30;;;13.60;89.30;;;;;;5030270;28;20032;-76
2023/11/11 08:05:44;;;;;;;2.15;1.20;;;13.60;89.30;;;;;;5030134;28;20040;-76
2023/11/11 08:08:10;;;;;;;3.22;1.48;;;13.70;89.40;;;;;;5030261;28;20401;-77
2023/11/11 08:10:36;;;;;;;2.45;1.38;;;13.70;89.40;;;;;;5030028;28;20025;-77
2023/11/11 08:13:02;;;;;;;2.42;1.15;;;13.60;89.40;;;;;;5048094;28;20032;-76
2023/11/11 08:15:28;;;;;;;1.58;1.10;;;13.70;89.40;;;;;;5048113;28;20025;-76
2023/11/11 08:17:54;;;;;;;1.70;1.20;;;13.70;89.40;;;;;;5030232;28;20044;-76
2023/11/11 08:20:19;;;;;;;2.30;1.40;;;13.70;89.30;;;;;;5029896;28;20028;-77
2023/11/11 08:22:47;;;;;;;3.65;1.75;;;13.70;89.30;;;;;;5047763;28;20082;-76
2023/11/11 08:25:12;;;;;;;3.65;1.40;;;13.80;89.10;;;;;;5047715;28;20025;-77
2023/11/11 08:27:42;;;;;;;2.25;1.42;;;13.70;88.80;;;;;;5029521;28;20316;-76
2023/11/11 08:30:10;;;;;;;2.80;1.50;;;13.80;88.60;;;;;;5029826;28;20029;-78
2023/11/11 08:32:37;;;;;;;3.92;1.50;;;13.80;88.40;;;;;;5048537;28;20036;-77
2023/11/11 08:35:03;;;;;;;5.35;1.50;;;13.90;88.40;;;;;;5048955;28;20037;-78
2023/11/11 08:37:28;;;;;;;2.58;1.40;;;14.00;88.20;;;;;;5031392;28;20112;-76
2023/11/11 08:39:54;;;;;;;2.85;1.45;;;13.90;88.00;;;;;;5048876;28;20851;-76
2023/11/11 08:42:19;;;;;;;2.70;1.80;;;14.00;88.00;;;;;;5030436;28;20020;-80
2023/11/11 08:44:48;;;;;;;2.63;1.20;;;14.00;87.80;;;;;;5035821;28;20108;-77
2023/11/11 08:47:13;;;;;;;4.07;1.63;;;14.10;87.90;;;;;;5047776;28;20048;-79
2023/11/11 08:49:39;;;;;;;3.13;1.33;;;14.10;87.70;;;;;;5047726;28;20060;-76
2023/11/11 08:52:05;;;;;;;4.07;1.65;;;14.10;87.60;;;;;;5030240;28;20024;-77
2023/11/11 08:54:30;;;;;;;3.67;1.52;;;14.10;87.50;;;;;;5030130;28;20024;-78
2023/11/11 08:56:56;;;;;;;3.78;1.40;;;14.20;87.50;;;;;;5047361;28;20063;-77
2023/11/11 08:59:21;;;;;;;4.38;1.42;;;14.30;87.50;;;;;;5046913;28;20060;-76
2023/11/11 09:01:47;;;;;;;4.20;1.60;;;14.30;87.90;;;;;;5029165;28;20615;-76
2023/11/11 09:04:13;;;;;;;2.70;1.30;;;14.20;87.40;;;;;;5029224;28;20514;-76
2023/11/11 09:06:38;;;;;;;3.22;1.30;;;14.30;87.40;;;;;;5046953;28;20112;-76
2023/11/11 09:09:04;;;;;;;3.72;1.80;;;14.30;87.30;;;;;;5046107;28;20029;-77
2023/11/11 09:11:36;;;;;;;4.35;2.17;;;14.30;87.20;;;;;;5047921;28;20438;-77
2023/11/11 09:14:04;;;;;;;3.65;1.60;;;14.40;87.10;;;;;;5049158;28;20017;-78
2023/11/11 09:16:29;;;;;;;3.50;1.33;;;14.40;87.00;;;;;;5028799;28;20025;-77
2023/11/11 09:18:55;;;;;;;4.68;1.55;;;14.50;87.10;;;;;;5029092;28;20075;-79
2023/11/11 09:21:21;;;;;;;5.15;1.50;;;14.40;87.00;;;;;;5028961;28;20090;-77
2023/11/11 09:23:46;;;;;;;4.55;1.50;;;14.40;86.90;;;;;;5028492;28;20025;-77
2023/11/11 09:26:13;;;;;;;3.60;1.40;;;14.40;87.00;;;;;;5028763;28;20349;-77
2023/11/11 09:28:38;;;;;;;2.50;1.35;;;14.30;87.10;;;;;;5028457;28;20033;-77
2023/11/11 09:31:04;;;;;;;4.57;1.67;;;14.30;87.20;;;;;;5045987;28;20521;-78
2023/11/11 09:33:30;;;;;;;5.75;1.30;;;14.30;87.40;;;;;;5046529;28;20036;-77
2023/11/11 09:35:56;;;;;;;4.10;1.55;;;14.20;87.40;;;;;;5046379;28;20021;-77
2023/11/11 09:38:21;;;;;;;3.22;1.40;;;14.20;87.50;;;;;;5046433;28;20088;-77
2023/11/11 09:40:47;;;;;;;3.10;1.30;;;14.10;87.70;;;;;;5046483;28;20083;-77
2023/11/11 09:43:12;;;;;;;3.78;1.80;;;14.10;87.80;;;;;;5028720;28;20032;-78
2023/11/11 09:45:39;;;;;;;8.82;1.80;;;14.10;87.90;;;;;;5028584;28;20135;-78
2023/11/11 09:48:05;;;;;;;2.97;1.50;;;14.10;87.90;;;;;;5028798;28;20025;-77
2023/11/11 09:50:31;;;;;;;3.78;1.40;;;14.10;88.00;;;;;;5045822;28;20035;-77
2023/11/11 09:52:59;;;;;;;3.13;1.42;;;14.00;88.00;;;;;;5046382;28;20461;-77
2023/11/11 09:55:25;;;;;;;4.57;1.40;;;14.00;88.00;;;;;;5028195;28;20031;-77
2023/11/11 09:57:52;;;;;;;3.05;1.30;;;14.00;88.10;;;;;;5046155;28;20536;-77
2023/11/11 10:00:19;;;;;;;4.28;1.20;;;14.00;88.10;;;;;;5045999;28;20067;-77
2023/11/11 10:02:45;;;;;;;2.00;1.15;;;14.00;88.20;;;;;;5046393;28;20028;-77
2023/11/11 10:05:10;;;;;;;3.67;1.20;;;14.00;88.20;;;;;;5028419;28;20024;-78
2023/11/11 10:07:38;;;;;;;2.60;1.30;;;14.00;88.20;;;;;;5046157;28;20372;-77
2023/11/11 10:10:05;;;;;;;3.17;1.27;;;14.00;88.30;;;;;;5028160;28;20112;-77
2023/11/11 10:12:32;;;;;;;2.85;1.10;;;13.90;88.50;;;;;;5028060;28;20045;-78
2023/11/11 10:15:04;;;;;;;3.28;1.38;;;13.90;88.30;;;;;;5028487;28;20036;-77
2023/11/11 10:17:34;;;;;;;3.53;1.23;;;13.90;88.40;;;;;;5028265;28;20021;-76
2023/11/11 10:20:02;;;;;;;3.00;1.17;;;13.90;88.40;;;;;;5013160;28;20272;-77
2023/11/11 10:22:28;;;;;;;3.08;1.23;;;13.90;88.50;;;;;;5046163;28;20151;-76
2023/11/11 10:24:56;;;;;;;3.17;1.40;;;13.90;88.50;;;;;;5048169;28;20100;-80
2023/11/11 10:27:21;;;;;;;4.95;1.50;;;13.90;88.50;;;;;;5051107;28;20542;-78
2023/11/11 10:29:47;;;;;;;5.18;1.20;;;13.90;88.60;;;;;;5028632;28;20029;-77
2023/11/11 10:32:12;;;;;;;5.22;1.30;;;13.90;88.40;;;;;;5029113;28;20742;-78
2023/11/11 10:34:38;;;;;;;3.58;1.27;;;13.80;88.10;;;;;;5031440;28;20056;-79
2023/11/11 10:37:05;;;;;;;6.30;1.38;;;13.80;87.90;;;;;;5053819;28;20053;-77
2023/11/11 10:39:34;;;;;;;5.53;1.27;;;13.80;87.10;;;;;;5049224;28;20025;-77
2023/11/11 10:42:01;;;;;;;5.05;1.45;;;13.80;87.00;;;;;;5031826;28;20029;-77
2023/11/11 10:44:27;;;;;;;4.80;1.30;;;13.80;86.50;;;;;;5032692;28;20032;-77
2023/11/11 10:46:54;;;;;;;6.63;1.40;;;13.80;86.30;;;;;;5031534;28;20037;-77
2023/11/11 10:49:22;;;;;;;6.82;1.13;;;13.90;86.30;;;;;;5050642;28;20021;-78
2023/11/11 10:51:50;;;;;;;5.32;1.20;;;13.90;86.00;;;;;;5049551;28;20029;-78
2023/11/11 10:54:18;;;;;;;4.70;1.20;;;13.90;85.80;;;;;;5048946;28;20658;-77
2023/11/11 10:56:45;;;;;;;5.97;1.50;;;13.90;85.80;;;;;;5051051;28;20025;-77
2023/11/11 10:59:11;;;;;;;5.47;1.33;;;13.90;85.80;;;;;;5042959;28;20036;-77
2023/11/11 11:01:37;;;;;;;3.88;1.30;;;13.90;85.70;;;;;;5036017;28;20033;-78
2023/11/11 11:04:04;;;;;;;3.40;1.30;;;13.90;85.60;;;;;;5029091;28;20112;-76
2023/11/11 11:06:52;;;;;;;4.32;1.38;;;13.90;85.70;;;;;;5033287;28;20634;-77
2023/11/11 11:09:40;;;;;;;4.95;1.20;;;13.90;85.80;;;;;;5032657;28;20029;-77
2023/11/11 11:12:18;;;;;;;5.22;1.30;;;13.80;85.80;;;;;;5050905;28;20029;-77
2023/11/11 11:14:50;;;;;;;4.03;1.40;;;13.80;86.00;;;;;;5050846;28;20036;-76
2023/11/11 11:17:16;;;;;;;4.13;1.30;;;13.80;86.10;;;;;;5049729;28;20024;-76
2023/11/11 11:19:51;;;;;;;4.50;1.35;;;13.80;86.20;;;;;;5031082;28;20134;-77
2023/11/11 11:22:17;;;;;;;3.80;1.20;;;13.80;86.30;;;;;;5031714;28;20033;-77
2023/11/11 11:24:45;;;;;;;4.00;1.10;;;13.80;86.30;;;;;;5050472;28;20040;-76
2023/11/11 11:27:12;;;;;;;4.97;1.25;;;13.70;86.40;;;;;;5030395;28;20578;-76
2023/11/11 11:29:38;;;;;;;3.38;1.10;;;13.70;86.40;;;;;;5048072;28;20402;-77
2023/11/11 11:32:08;;;;;;;3.97;1.40;;;13.80;86.70;;;;;;5031773;28;20017;-76
2023/11/11 11:34:39;;;;;;;3.25;1.10;;;13.70;86.70;;;;;;5031817;28;20391;-76
2023/11/11 11:37:12;;;;;;;3.95;1.40;;;13.70;86.70;;;;;;5031297;28;20022;-77
2023/11/11 11:39:53;;;;;;;2.88;1.10;;;13.70;86.70;;;;;;5030898;28;20032;-77
2023/11/11 11:42:24;;;;;;;4.40;1.13;;;13.70;86.80;;;;;;5031386;28;20070;-77
2023/11/11 11:44:57;;;;;;;4.87;1.30;;;13.70;86.70;;;;;;5031241;28;20036;-77
2023/11/11 11:47:29;;;;;;;3.78;1.15;;;13.70;86.90;;;;;;5030236;28;20055;-77
2023/11/11 11:49:55;;;;;;;4.82;1.30;;;13.70;86.90;;;;;;5048877;28;20029;-77
2023/11/11 11:52:24;;;;;;;5.05;1.40;;;13.70;87.00;;;;;;5049381;28;20446;-78
2023/11/11 11:54:51;;;;;;;4.05;1.70;;;13.70;86.80;;;;;;5030748;28;20079;-77
2023/11/11 11:57:17;;;;;;;3.40;1.45;;;13.70;86.40;;;;;;5030859;28;20033;-76
2023/11/11 11:59:44;;;;;;;4.28;1.20;;;13.70;86.50;;;;;;5030423;28;20021;-77
2023/11/11 12:02:11;;;;;;;3.22;0.90;;;13.60;86.30;;;;;;5030845;28;20108;-76
2023/11/11 12:04:41;;;;;;;2.38;1.05;;;13.70;86.30;;;;;;5045541;28;20020;-76
2023/11/11 12:07:09;;;;;;;3.17;1.10;;;13.60;86.10;;;;;;5046644;28;20092;-77
2023/11/11 12:09:39;;;;;;;2.63;1.10;;;13.60;86.20;;;;;;5047212;28;20021;-77
2023/11/11 12:12:11;;;;;;;3.78;1.30;;;13.70;86.30;;;;;;5048151;28;20029;-77
2023/11/11 12:14:36;;;;;;;3.00;1.10;;;13.60;87.00;;;;;;5030167;28;20075;-75
2023/11/11 12:17:03;;;;;;;3.13;0.93;;;13.60;86.30;;;;;;5030578;28;20546;-76
2023/11/11 12:19:34;;;;;;;2.13;1.00;;;13.70;86.20;;;;;;5029118;28;20112;-75
2023/11/11 12:22:01;;;;;;;3.45;1.08;;;13.70;86.10;;;;;;5047441;28;20047;-75
2023/11/11 12:24:29;;;;;;;3.85;1.30;;;13.70;86.20;;;;;;5047185;28;20031;-75
2023/11/11 12:26:56;;;;;;;2.50;1.00;;;13.70;86.20;;;;;;5048574;28;20021;-76
2023/11/11 12:29:22;;;;;;;3.45;1.05;;;13.80;86.20;;;;;;5046820;28;20024;-75
2023/11/11 12:31:50;;;;;;;2.80;1.08;;;13.70;86.00;;;;;;5028800;28;20031;-77
2023/11/11 12:34:18;;;;;;;2.90;1.23;;;13.70;85.90;;;;;;5029844;28;20033;-78
2023/11/11 12:36:45;;;;;;;3.58;1.20;;;13.70;85.80;;;;;;5019639;28;20029;-76
2023/11/11 12:39:14;;;;;;;4.50;1.33;;;13.70;85.90;;;;;;5030195;28;20032;-77
2023/11/11 12:41:45;;;;;;;17.73;2.08;;;13.70;86.00;;;;;;5029697;28;20490;-76
2023/11/11 12:44:11;;;;;;;8.38;1.42;;;13.70;86.10;;;;;;5030877;28;20064;-76